createdAt,value
2022-10-05T00:29:38.170Z,1009.59
2022-10-05T00:30:18.614Z,1009.58
2022-10-05T00:30:59.091Z,1009.61
2022-10-05T00:31:39.602Z,1009.57
2022-10-05T00:32:20.045Z,1009.57
2022-10-05T00:33:00.539Z,1009.59
2022-10-05T00:33:40.966Z,1009.6
2022-10-05T00:34:21.458Z,1009.63
2022-10-05T00:35:01.919Z,1009.6
2022-10-05T00:35:42.370Z,1009.55
2022-10-05T00:36:22.823Z,1009.58
2022-10-05T00:37:03.291Z,1009.6
2022-10-05T00:37:43.788Z,1009.59
2022-10-05T00:38:24.248Z,1009.59
2022-10-05T00:39:04.708Z,1009.62
2022-10-05T00:39:45.170Z,1009.61
2022-10-05T00:40:25.676Z,1009.58
2022-10-05T00:41:06.096Z,1009.63
2022-10-05T00:41:46.558Z,1009.62
2022-10-05T00:42:27.024Z,1009.58
2022-10-05T00:43:07.531Z,1009.56
2022-10-05T00:43:47.939Z,1009.56
2022-10-05T00:44:28.413Z,1009.54
2022-10-05T00:45:08.931Z,1009.56
2022-10-05T00:45:49.459Z,1009.57
2022-10-05T00:46:29.915Z,1009.56
2022-10-05T00:47:10.419Z,1009.54
2022-10-05T00:47:50.885Z,1009.55
2022-10-05T00:48:31.392Z,1009.51
2022-10-05T00:49:11.885Z,1009.48
2022-10-05T00:49:52.357Z,1009.49
2022-10-05T00:50:32.808Z,1009.51
2022-10-05T00:51:13.301Z,1009.51
2022-10-05T00:51:53.811Z,1009.54
2022-10-05T00:52:34.333Z,1009.5
2022-10-05T00:53:14.815Z,1009.52
2022-10-05T00:53:55.283Z,1009.49
2022-10-05T00:54:35.748Z,1009.49
2022-10-05T00:55:16.262Z,1009.43
2022-10-05T00:55:56.723Z,1009.43
2022-10-05T00:56:37.212Z,1009.45
2022-10-05T00:57:17.698Z,1009.47
2022-10-05T00:57:58.148Z,1009.42
2022-10-05T00:58:38.619Z,1009.44
2022-10-05T00:59:19.924Z,1009.43
2022-10-05T01:00:00.391Z,1009.49
2022-10-05T01:00:40.936Z,1009.47
2022-10-05T01:01:21.401Z,1009.5
2022-10-05T01:02:01.917Z,1009.46
2022-10-05T01:02:42.406Z,1009.48
2022-10-05T01:03:22.836Z,1009.5
2022-10-05T01:04:03.297Z,1009.5
2022-10-05T01:04:43.771Z,1009.52
2022-10-05T01:05:24.291Z,1009.5
2022-10-05T01:06:04.752Z,1009.54
2022-10-05T01:06:45.468Z,1009.57
2022-10-05T01:07:25.743Z,1009.56
2022-10-05T01:08:06.183Z,1009.55
2022-10-05T01:08:46.640Z,1009.53
2022-10-05T01:09:27.115Z,1009.55
2022-10-05T01:10:07.560Z,1009.53
2022-10-05T01:10:48.016Z,1009.5
2022-10-05T01:11:28.502Z,1009.5
2022-10-05T01:12:08.985Z,1009.47
2022-10-05T01:12:49.450Z,1009.48
2022-10-05T01:13:29.914Z,1009.52
2022-10-05T01:14:11.147Z,1009.53
2022-10-05T01:14:50.857Z,1009.51
2022-10-05T01:15:31.347Z,1009.54
2022-10-05T01:16:11.889Z,1009.51
2022-10-05T01:16:52.320Z,1009.53
2022-10-05T01:17:32.756Z,1009.6
2022-10-05T01:18:13.298Z,1009.59
2022-10-05T01:18:53.723Z,1009.61
2022-10-05T01:19:34.192Z,1009.61
2022-10-05T01:20:14.673Z,1009.65
2022-10-05T01:20:55.121Z,1009.66
2022-10-05T01:21:36.535Z,1009.64
2022-10-05T01:22:17.017Z,1009.66
2022-10-05T01:22:57.486Z,1009.7
2022-10-05T01:23:37.962Z,1009.62
2022-10-05T01:24:18.421Z,1009.63
2022-10-05T01:24:58.875Z,1009.59
2022-10-05T01:25:39.387Z,1009.62
2022-10-05T01:26:19.882Z,1009.58
2022-10-05T01:27:00.348Z,1009.57
2022-10-05T01:27:40.807Z,1009.54
2022-10-05T01:28:21.342Z,1009.5
2022-10-05T01:29:01.722Z,1009.52
2022-10-05T01:29:42.190Z,1009.53
2022-10-05T01:30:22.682Z,1009.52
2022-10-05T01:31:03.173Z,1009.53
2022-10-05T01:31:43.654Z,1009.54
2022-10-05T01:32:24.092Z,1009.5
2022-10-05T01:33:04.609Z,1009.46
2022-10-05T01:33:45.123Z,1009.5
2022-10-05T01:34:25.591Z,1009.47
2022-10-05T01:35:06.100Z,1009.47
2022-10-05T01:35:46.588Z,1009.45
2022-10-05T01:36:27.067Z,1009.5
2022-10-05T01:37:07.537Z,1009.54
2022-10-05T01:37:48.035Z,1009.46
2022-10-05T01:38:28.510Z,1009.48
2022-10-05T01:39:08.986Z,1009.46
2022-10-05T01:39:49.480Z,1009.51
2022-10-05T01:40:29.968Z,1009.44
2022-10-05T01:41:10.440Z,1009.46
2022-10-05T01:41:50.942Z,1009.45
2022-10-05T01:42:31.422Z,1009.47
2022-10-05T01:43:11.930Z,1009.42
2022-10-05T01:43:52.372Z,1009.42
2022-10-05T01:44:32.891Z,1009.42
2022-10-05T01:45:13.354Z,1009.4
2022-10-05T01:45:53.883Z,1009.4
2022-10-05T01:46:34.290Z,1009.42
2022-10-05T01:47:14.812Z,1009.43
2022-10-05T01:47:55.232Z,1009.42
2022-10-05T01:48:35.692Z,1009.38
2022-10-05T01:49:16.173Z,1009.4
2022-10-05T01:49:56.690Z,1009.34
2022-10-05T01:50:37.125Z,1009.36
2022-10-05T01:51:17.610Z,1009.37
2022-10-05T01:51:58.089Z,1009.35
2022-10-05T01:53:19.066Z,1009.33
2022-10-05T01:53:59.546Z,1009.33
2022-10-05T01:54:39.981Z,1009.26
2022-10-05T01:56:00.914Z,1009.27
2022-10-05T01:56:41.388Z,1009.31
2022-10-05T01:57:22.639Z,1009.27
2022-10-05T01:58:03.119Z,1009.29
2022-10-05T01:58:43.586Z,1009.31
2022-10-05T01:59:24.030Z,1009.3
2022-10-05T02:00:04.517Z,1009.26
2022-10-05T02:00:45.053Z,1009.28
2022-10-05T02:01:25.558Z,1009.24
2022-10-05T02:02:05.996Z,1009.26
2022-10-05T02:02:46.453Z,1009.25
2022-10-05T02:03:26.937Z,1009.24
2022-10-05T02:04:07.380Z,1009.23
2022-10-05T02:05:03.553Z,1009.23
2022-10-05T02:06:08.808Z,1009.21
2022-10-05T02:06:49.547Z,1009.21
2022-10-05T02:07:29.768Z,1009.22
2022-10-05T02:08:10.257Z,1009.2
2022-10-05T02:08:50.726Z,1009.2
2022-10-05T02:09:31.182Z,1009.21
2022-10-05T02:10:11.647Z,1009.19
2022-10-05T02:10:52.104Z,1009.2
2022-10-05T02:11:32.590Z,1009.2
2022-10-05T02:12:13.091Z,1009.2
2022-10-05T02:12:53.561Z,1009.18
2022-10-05T02:13:34.017Z,1009.17
2022-10-05T02:14:14.507Z,1009.12
2022-10-05T02:14:54.956Z,1009.09
2022-10-05T02:16:15.909Z,1009.14
2022-10-05T02:16:56.344Z,1009.14
2022-10-05T02:17:36.905Z,1009.11
2022-10-05T02:18:17.400Z,1009.08
2022-10-05T02:18:57.845Z,1009.11
2022-10-05T02:19:38.396Z,1009.11
2022-10-05T02:20:18.824Z,1009.11
2022-10-05T02:20:59.286Z,1009.1
2022-10-05T02:21:39.783Z,1009.12
2022-10-05T02:22:20.272Z,1009.07
2022-10-05T02:23:00.736Z,1009.07
2022-10-05T02:23:41.212Z,1009.03
2022-10-05T02:24:21.642Z,1009.06
2022-10-05T02:25:02.119Z,1009.06
2022-10-05T02:25:42.626Z,1009.01
2022-10-05T02:26:23.046Z,1009.04
2022-10-05T02:27:03.548Z,1009.07
2022-10-05T02:27:44.029Z,1009.04
2022-10-05T02:28:24.561Z,1009.04
2022-10-05T02:29:05.013Z,1009.03
2022-10-05T02:29:45.467Z,1009.08
2022-10-05T02:30:25.972Z,1009.09
2022-10-05T02:31:06.465Z,1009.06
2022-10-05T02:31:46.931Z,1009.06
2022-10-05T02:32:27.381Z,1009.07
2022-10-05T02:33:07.840Z,1009.08
2022-10-05T02:33:49.048Z,1009.05
2022-10-05T02:34:29.465Z,1009.07
2022-10-05T02:35:09.946Z,1009.03
2022-10-05T02:35:50.419Z,1009.1
2022-10-05T02:36:30.900Z,1009.07
2022-10-05T02:37:11.394Z,1009.09
2022-10-05T02:37:51.846Z,1009.08
2022-10-05T02:38:32.290Z,1009.13
2022-10-05T02:39:12.758Z,1009.07
2022-10-05T02:39:53.217Z,1009.12
2022-10-05T02:40:34.504Z,1009.11
2022-10-05T02:41:14.959Z,1009.09
2022-10-05T02:41:55.418Z,1009.09
2022-10-05T02:42:35.915Z,1009.09
2022-10-05T02:43:16.362Z,1009.1
2022-10-05T02:43:56.864Z,1009.1
2022-10-05T02:44:37.854Z,1009.09
2022-10-05T02:45:18.304Z,1009.08
2022-10-05T02:45:58.814Z,1009.08
2022-10-05T02:47:19.767Z,1009.12
2022-10-05T02:48:00.222Z,1009.12
2022-10-05T02:48:40.694Z,1009.11
2022-10-05T02:49:21.162Z,1009.14
2022-10-05T02:50:01.645Z,1009.1
2022-10-05T02:50:42.162Z,1009.11
2022-10-05T02:51:22.627Z,1009.11
2022-10-05T02:52:03.119Z,1009.1
2022-10-05T02:52:43.592Z,1009.1
2022-10-05T02:53:24.057Z,1009.09
2022-10-05T02:54:04.533Z,1009.12
2022-10-05T02:54:45.015Z,1009.06
2022-10-05T02:55:25.483Z,1009.06
2022-10-05T02:56:05.940Z,1009.07
2022-10-05T02:56:46.615Z,1009.06
2022-10-05T02:57:26.863Z,1009.06
2022-10-05T02:58:07.330Z,1009.01
2022-10-05T02:58:47.806Z,1009.02
2022-10-05T02:59:28.286Z,1009
2022-10-05T03:00:08.768Z,1008.99
2022-10-05T03:00:49.267Z,1009.02
2022-10-05T03:01:29.813Z,1008.99
2022-10-05T03:02:10.278Z,1009.01
2022-10-05T03:02:50.689Z,1008.99
2022-10-05T03:03:31.176Z,1009
2022-10-05T03:04:11.652Z,1008.96
2022-10-05T03:04:52.201Z,1009
2022-10-05T03:05:32.623Z,1009.04
2022-10-05T03:06:13.115Z,1009.03
2022-10-05T03:06:53.572Z,1008.99
2022-10-05T03:07:34.098Z,1009.02
2022-10-05T03:08:14.511Z,1008.99
2022-10-05T03:08:54.961Z,1009.01
2022-10-05T03:09:35.408Z,1008.98
2022-10-05T03:10:15.894Z,1008.96
2022-10-05T03:10:56.359Z,1008.99
2022-10-05T03:11:36.833Z,1008.96
2022-10-05T03:12:17.337Z,1008.94
2022-10-05T03:12:57.780Z,1008.93
2022-10-05T03:13:38.264Z,1008.93
2022-10-05T03:14:18.750Z,1008.93
2022-10-05T03:14:59.236Z,1008.91
2022-10-05T03:16:20.248Z,1008.91
2022-10-05T03:17:00.627Z,1008.88
2022-10-05T03:17:41.123Z,1008.87
2022-10-05T03:19:02.087Z,1008.87
2022-10-05T03:19:42.565Z,1008.9
2022-10-05T03:21:55.403Z,1008.9
2022-10-05T03:22:35.938Z,1008.91
2022-10-05T03:23:17.085Z,1008.86
2022-10-05T03:23:57.545Z,1008.87
2022-10-05T03:24:38.036Z,1008.87
2022-10-05T03:25:18.587Z,1008.9
2022-10-05T03:25:59.133Z,1008.83
2022-10-05T03:26:39.593Z,1008.86
2022-10-05T03:27:20.067Z,1008.88
2022-10-05T03:28:00.573Z,1008.85
2022-10-05T03:28:41.028Z,1008.84
2022-10-05T03:29:21.521Z,1008.9
2022-10-05T03:30:02.003Z,1008.84
2022-10-05T03:30:42.467Z,1008.82
2022-10-05T03:31:23.066Z,1008.83
2022-10-05T03:32:03.530Z,1008.8
2022-10-05T03:32:43.968Z,1008.8
2022-10-05T03:33:24.453Z,1008.8
2022-10-05T03:34:45.447Z,1008.83
2022-10-05T03:35:25.971Z,1008.8
2022-10-05T03:36:06.484Z,1008.81
2022-10-05T03:36:47.268Z,1008.79
2022-10-05T03:37:27.569Z,1008.79
2022-10-05T03:39:26.287Z,1008.77
2022-10-05T03:40:06.690Z,1008.75
2022-10-05T03:40:47.189Z,1008.78
2022-10-05T03:41:28.461Z,1008.73
2022-10-05T03:42:08.935Z,1008.76
2022-10-05T03:42:49.422Z,1008.75
2022-10-05T03:43:29.877Z,1008.73
2022-10-05T03:44:10.336Z,1008.73
2022-10-05T03:44:50.840Z,1008.72
2022-10-05T03:45:32.144Z,1008.72
2022-10-05T03:46:12.636Z,1008.74
2022-10-05T03:46:53.099Z,1008.74
2022-10-05T03:47:33.621Z,1008.69
2022-10-05T03:48:14.058Z,1008.69
2022-10-05T03:48:54.540Z,1008.72
2022-10-05T03:50:15.545Z,1008.66
2022-10-05T03:50:55.977Z,1008.68
2022-10-05T03:51:36.491Z,1008.59
2022-10-05T03:52:16.948Z,1008.61
2022-10-05T03:52:57.506Z,1008.66
2022-10-05T03:53:37.911Z,1008.63
2022-10-05T03:54:18.397Z,1008.58
2022-10-05T03:54:58.830Z,1008.66
2022-10-05T03:55:39.333Z,1008.59
2022-10-05T03:56:19.805Z,1008.62
2022-10-05T03:57:00.277Z,1008.62
2022-10-05T03:57:40.747Z,1008.55
2022-10-05T03:58:21.205Z,1008.53
2022-10-05T03:59:01.691Z,1008.53
2022-10-05T04:00:22.674Z,1008.55
2022-10-05T04:01:03.211Z,1008.52
2022-10-05T04:01:43.750Z,1008.52
2022-10-05T04:02:24.307Z,1008.48
2022-10-05T04:03:04.666Z,1008.53
2022-10-05T04:03:45.149Z,1008.51
2022-10-05T04:04:25.625Z,1008.5
2022-10-05T04:05:06.149Z,1008.54
2022-10-05T04:05:46.589Z,1008.49
2022-10-05T04:06:27.060Z,1008.49
2022-10-05T04:07:07.567Z,1008.49
2022-10-05T04:07:48.149Z,1008.48
2022-10-05T04:08:28.647Z,1008.47
2022-10-05T04:09:09.086Z,1008.45
2022-10-05T04:09:49.571Z,1008.47
2022-10-05T04:10:30.038Z,1008.42
2022-10-05T04:11:10.530Z,1008.41
2022-10-05T04:11:51.019Z,1008.41
2022-10-05T04:12:31.527Z,1008.42
2022-10-05T04:13:12.045Z,1008.39
2022-10-05T04:13:52.545Z,1008.39
2022-10-05T04:14:33.014Z,1008.42
2022-10-05T04:15:17.970Z,1008.43
2022-10-05T04:15:54.018Z,1008.37
2022-10-05T04:16:34.440Z,1008.39
2022-10-05T04:17:14.912Z,1008.36
2022-10-05T04:17:55.411Z,1008.38
2022-10-05T04:18:35.901Z,1008.33
2022-10-05T04:19:16.363Z,1008.36
2022-10-05T04:19:56.876Z,1008.34
2022-10-05T04:20:37.257Z,1008.36
2022-10-05T04:21:21.373Z,1008.41
2022-10-05T04:21:58.219Z,1008.36
2022-10-05T04:22:38.693Z,1008.45
2022-10-05T04:23:19.177Z,1008.41
2022-10-05T04:23:59.658Z,1008.49
2022-10-05T04:24:40.156Z,1008.37
2022-10-05T04:25:20.658Z,1008.38
2022-10-05T04:26:01.106Z,1008.4
2022-10-05T04:26:41.578Z,1008.44
2022-10-05T04:27:22.062Z,1008.46
2022-10-05T04:28:02.616Z,1008.37
2022-10-05T04:28:43.115Z,1008.46
2022-10-05T04:29:23.524Z,1008.4
2022-10-05T04:30:04.035Z,1008.45
2022-10-05T04:30:44.495Z,1008.47
2022-10-05T04:31:25.039Z,1008.42
2022-10-05T04:32:05.473Z,1008.42
2022-10-05T04:32:45.949Z,1008.42
2022-10-05T04:33:26.403Z,1008.45
2022-10-05T04:34:06.899Z,1008.44
2022-10-05T04:34:47.360Z,1008.46
2022-10-05T04:35:27.841Z,1008.48
2022-10-05T04:36:08.312Z,1008.44
2022-10-05T04:36:48.981Z,1008.42
2022-10-05T04:37:29.236Z,1008.4
2022-10-05T04:38:09.714Z,1008.42
2022-10-05T04:38:50.167Z,1008.41
2022-10-05T04:39:30.639Z,1008.37
2022-10-05T04:40:11.103Z,1008.41
2022-10-05T04:40:51.579Z,1008.41
2022-10-05T04:41:32.055Z,1008.43
2022-10-05T04:42:12.557Z,1008.44
2022-10-05T04:42:53.074Z,1008.41
2022-10-05T04:43:33.499Z,1008.4
2022-10-05T04:44:13.981Z,1008.42
2022-10-05T04:44:58.398Z,1008.41
2022-10-05T04:45:34.954Z,1008.39
2022-10-05T04:46:15.489Z,1008.43
2022-10-05T04:46:55.946Z,1008.43
2022-10-05T04:47:36.410Z,1008.44
2022-10-05T04:48:16.898Z,1008.42
2022-10-05T04:48:57.374Z,1008.4
2022-10-05T04:49:37.842Z,1008.38
2022-10-05T04:50:18.369Z,1008.41
2022-10-05T04:50:58.832Z,1008.43
2022-10-05T04:51:39.298Z,1008.45
2022-10-05T04:52:19.818Z,1008.47
2022-10-05T04:53:00.260Z,1008.48
2022-10-05T04:53:40.758Z,1008.48
2022-10-05T04:54:21.255Z,1008.46
2022-10-05T04:55:01.768Z,1008.5
2022-10-05T04:55:42.223Z,1008.47
2022-10-05T04:56:22.711Z,1008.45
2022-10-05T04:57:03.224Z,1008.49
2022-10-05T04:57:43.724Z,1008.49
2022-10-05T04:58:24.175Z,1008.5
2022-10-05T04:59:04.664Z,1008.48
2022-10-05T04:59:45.120Z,1008.52
2022-10-05T05:00:25.589Z,1008.48
2022-10-05T05:01:46.586Z,1008.48
2022-10-05T05:02:27.015Z,1008.48
2022-10-05T05:03:07.507Z,1008.49
2022-10-05T05:04:28.507Z,1008.5
2022-10-05T05:05:08.947Z,1008.48
2022-10-05T05:06:12.410Z,1008.45
2022-10-05T05:07:10.346Z,1008.47
2022-10-05T05:07:50.856Z,1008.46
2022-10-05T05:08:31.322Z,1008.49
2022-10-05T05:09:11.804Z,1008.44
2022-10-05T05:09:52.293Z,1008.45
2022-10-05T05:10:32.810Z,1008.45
2022-10-05T05:11:16.282Z,1008.44
2022-10-05T05:11:53.763Z,1008.46
2022-10-05T05:12:34.245Z,1008.46
2022-10-05T05:13:14.761Z,1008.46
2022-10-05T05:13:55.233Z,1008.45
2022-10-05T05:15:16.306Z,1008.43
2022-10-05T05:15:56.826Z,1008.46
2022-10-05T05:16:37.366Z,1008.43
2022-10-05T05:17:17.766Z,1008.42
2022-10-05T05:17:58.258Z,1008.42
2022-10-05T05:18:38.750Z,1008.45
2022-10-05T05:19:19.224Z,1008.45
2022-10-05T05:19:59.644Z,1008.42
2022-10-05T05:20:40.119Z,1008.41
2022-10-05T05:21:20.589Z,1008.41
2022-10-05T05:22:01.073Z,1008.45
2022-10-05T05:22:41.580Z,1008.45
2022-10-05T05:23:22.036Z,1008.44
2022-10-05T05:24:02.508Z,1008.43
2022-10-05T05:24:43.010Z,1008.46
2022-10-05T05:25:23.541Z,1008.46
2022-10-05T05:26:04.066Z,1008.47
2022-10-05T05:26:44.539Z,1008.48
2022-10-05T05:27:25.005Z,1008.49
2022-10-05T05:28:05.585Z,1008.55
2022-10-05T05:28:46.035Z,1008.53
2022-10-05T05:29:26.568Z,1008.54
2022-10-05T05:30:07.033Z,1008.51
2022-10-05T05:30:47.534Z,1008.51
2022-10-05T05:31:28.028Z,1008.54
2022-10-05T05:32:08.510Z,1008.5
2022-10-05T05:32:49.016Z,1008.49
2022-10-05T05:33:29.526Z,1008.5
2022-10-05T05:34:10.034Z,1008.5
2022-10-05T05:34:50.522Z,1008.49
2022-10-05T05:35:31.944Z,1008.47
2022-10-05T05:36:12.399Z,1008.48
2022-10-05T05:36:52.902Z,1008.45
2022-10-05T05:37:33.392Z,1008.52
2022-10-05T05:38:13.880Z,1008.5
2022-10-05T05:38:54.340Z,1008.47
2022-10-05T05:39:34.847Z,1008.49
2022-10-05T05:40:15.391Z,1008.46
2022-10-05T05:40:55.841Z,1008.42
2022-10-05T05:41:36.321Z,1008.49
2022-10-05T05:44:38.683Z,1008.45
2022-10-05T05:45:17.033Z,1008.46
2022-10-05T05:45:57.455Z,1008.46
2022-10-05T05:47:02.773Z,1008.45
2022-10-05T05:47:18.622Z,1008.45
2022-10-05T05:47:59.147Z,1008.47
2022-10-05T05:48:39.652Z,1008.43
2022-10-05T05:49:20.133Z,1008.46
2022-10-05T05:50:05.710Z,1008.43
2022-10-05T05:50:41.661Z,1008.46
2022-10-05T05:51:22.201Z,1008.49
2022-10-05T05:52:02.733Z,1008.47
2022-10-05T05:52:43.310Z,1008.49
2022-10-05T06:32:02.546Z,1008.5
2022-10-05T06:32:42.707Z,1008.48
2022-10-05T06:33:23.228Z,1008.5
2022-10-05T06:34:03.748Z,1008.53
2022-10-05T06:34:44.231Z,1008.48
2022-10-05T06:35:24.733Z,1008.54
2022-10-05T06:36:05.223Z,1008.51
2022-10-05T06:36:45.931Z,1008.53
2022-10-05T06:37:26.173Z,1008.55
2022-10-05T06:38:06.692Z,1008.55
2022-10-05T06:38:47.149Z,1008.56
2022-10-05T06:39:27.670Z,1008.55
2022-10-05T06:40:08.150Z,1008.56
2022-10-05T06:40:48.600Z,1008.55
2022-10-05T06:41:29.098Z,1008.57
2022-10-05T06:42:09.595Z,1008.55
2022-10-05T06:42:50.141Z,1008.55
2022-10-05T06:43:30.635Z,1008.54
2022-10-05T06:44:11.142Z,1008.57
2022-10-05T06:44:51.675Z,1008.58
2022-10-05T06:45:32.151Z,1008.57
2022-10-05T06:46:12.687Z,1008.58
2022-10-05T06:46:54.781Z,1008.58
2022-10-05T06:47:35.294Z,1008.6
2022-10-05T06:48:15.760Z,1008.6
2022-10-05T06:48:56.308Z,1008.61
2022-10-05T06:49:36.792Z,1008.61
2022-10-05T06:50:18.058Z,1008.56
2022-10-05T06:50:58.582Z,1008.55
2022-10-05T06:51:39.023Z,1008.57
2022-10-05T06:52:19.507Z,1008.57
2022-10-05T06:52:59.987Z,1008.57
2022-10-05T06:53:40.496Z,1008.56
2022-10-05T06:54:20.971Z,1008.59
2022-10-05T06:55:01.488Z,1008.56
2022-10-05T06:55:42.002Z,1008.61
2022-10-05T06:56:22.522Z,1008.58
2022-10-05T06:57:03.004Z,1008.6
2022-10-05T06:57:43.489Z,1008.56
2022-10-05T06:58:23.938Z,1008.58
2022-10-05T06:59:04.425Z,1008.59
2022-10-05T06:59:44.902Z,1008.63
2022-10-05T07:00:25.456Z,1008.59
2022-10-05T07:01:05.983Z,1008.56
2022-10-05T07:01:46.754Z,1008.59
2022-10-05T07:02:27.093Z,1008.57
2022-10-05T07:03:07.560Z,1008.61
2022-10-05T07:03:48.112Z,1008.56
2022-10-05T07:04:32.291Z,1008.62
2022-10-05T07:05:09.888Z,1008.58
2022-10-05T07:05:50.394Z,1008.58
2022-10-05T07:06:30.881Z,1008.56
2022-10-05T07:07:11.371Z,1008.56
2022-10-05T07:07:51.892Z,1008.56
2022-10-05T07:08:32.381Z,1008.54
2022-10-05T07:09:12.888Z,1008.52
2022-10-05T07:09:53.366Z,1008.57
2022-10-05T07:10:33.914Z,1008.57
2022-10-05T07:11:14.401Z,1008.55
2022-10-05T07:11:58.543Z,1008.53
2022-10-05T07:12:36.172Z,1008.5
2022-10-05T07:13:16.673Z,1008.5
2022-10-05T07:13:57.131Z,1008.58
2022-10-05T07:14:37.647Z,1008.51
2022-10-05T07:15:18.155Z,1008.44
2022-10-05T07:15:58.674Z,1008.5
2022-10-05T07:16:39.210Z,1008.5
2022-10-05T07:17:19.632Z,1008.5
2022-10-05T07:18:00.186Z,1008.54
2022-10-05T07:18:40.709Z,1008.52
2022-10-05T07:19:21.178Z,1008.53
2022-10-05T07:20:01.695Z,1008.53
2022-10-05T07:20:45.626Z,1008.51
2022-10-05T07:21:22.784Z,1008.5
2022-10-05T07:22:03.329Z,1008.53
2022-10-05T07:22:43.733Z,1008.55
2022-10-05T07:23:24.292Z,1008.54
2022-10-05T07:24:04.836Z,1008.56
2022-10-05T07:24:45.336Z,1008.51
2022-10-05T07:25:25.830Z,1008.53
2022-10-05T07:26:06.337Z,1008.5
2022-10-05T07:26:47.190Z,1008.52
2022-10-05T07:27:27.358Z,1008.49
2022-10-05T07:28:07.965Z,1008.49
2022-10-05T07:28:48.442Z,1008.53
2022-10-05T07:29:28.944Z,1008.53
2022-10-05T07:30:09.543Z,1008.53
2022-10-05T07:30:50.177Z,1008.51
2022-10-05T07:31:30.780Z,1008.49
2022-10-05T07:32:11.237Z,1008.57
2022-10-05T07:32:51.797Z,1008.5
2022-10-05T07:33:32.282Z,1008.51
2022-10-05T07:34:12.852Z,1008.52
2022-10-05T07:36:06.195Z,1008.56
2022-10-05T07:36:51.003Z,1008.55
2022-10-05T07:37:28.373Z,1008.59
2022-10-05T07:38:09.978Z,1008.61
2022-10-05T07:38:50.776Z,1008.54
2022-10-05T07:39:55.680Z,1008.52
2022-10-05T07:40:15.888Z,1008.59
2022-10-05T07:40:56.873Z,1008.54
2022-10-05T07:41:37.834Z,1008.56
2022-10-05T07:42:18.811Z,1008.56
2022-10-05T07:43:00.772Z,1008.59
2022-10-05T07:44:01.342Z,1008.6
2022-10-05T07:44:24.165Z,1008.58
2022-10-05T07:45:08.067Z,1008.58
2022-10-05T07:45:49.037Z,1008.6
2022-10-05T07:46:30.254Z,1008.58
2022-10-05T07:47:11.323Z,1008.58
2022-10-05T07:47:52.389Z,1008.62
2022-10-05T07:48:33.660Z,1008.57
2022-10-05T07:49:14.674Z,1008.57
2022-10-05T07:50:36.768Z,1008.56
2022-10-05T07:51:17.855Z,1008.61
2022-10-05T07:51:58.877Z,1008.62
2022-10-05T07:52:40.074Z,1008.57
2022-10-05T07:53:21.086Z,1008.57
2022-10-05T07:54:02.250Z,1008.55
2022-10-05T07:54:44.088Z,1008.6
2022-10-05T07:55:25.092Z,1008.57
2022-10-05T07:56:06.236Z,1008.59
2022-10-05T07:56:47.742Z,1008.62
2022-10-05T07:57:28.482Z,1008.67
2022-10-05T07:58:09.610Z,1008.64
2022-10-05T07:58:50.969Z,1008.69
2022-10-05T07:59:32.004Z,1008.65
2022-10-05T08:00:14.682Z,1008.63
2022-10-05T08:00:54.218Z,1008.68
2022-10-05T08:03:53.456Z,1008.76
2022-10-05T08:04:37.003Z,1008.64
2022-10-05T08:05:14.352Z,1008.64
2022-10-05T08:05:54.960Z,1008.66
2022-10-05T08:06:38.180Z,1008.66
2022-10-05T08:07:18.899Z,1008.65
2022-10-05T08:10:21.662Z,1008.7
2022-10-05T08:11:03.623Z,1008.7
2022-10-05T08:11:43.154Z,1008.69
2022-10-05T08:12:23.714Z,1008.71
2022-10-05T08:13:06.076Z,1008.72
2022-10-05T08:13:46.456Z,1008.71
2022-10-05T08:14:27.057Z,1008.71
2022-10-05T08:15:07.539Z,1008.68
2022-10-05T08:15:48.437Z,1008.7
2022-10-05T08:16:30.502Z,1008.73
2022-10-05T08:17:11.135Z,1008.71
2022-10-05T08:17:51.589Z,1008.69
2022-10-05T08:18:32.210Z,1008.71
2022-10-05T08:19:12.819Z,1008.71
2022-10-05T08:22:28.197Z,1008.64
2022-10-05T08:23:08.695Z,1008.61
2022-10-05T08:23:49.276Z,1008.68
2022-10-05T08:24:31.052Z,1008.7
2022-10-05T08:25:11.592Z,1008.66
2022-10-05T08:25:52.109Z,1008.66
2022-10-05T08:26:33.482Z,1008.65
2022-10-05T08:27:15.781Z,1008.68
2022-10-05T08:27:56.501Z,1008.63
2022-10-05T08:28:38.444Z,1008.65
2022-10-05T08:29:20.195Z,1008.66
2022-10-05T08:30:01.749Z,1008.69
2022-10-05T08:30:42.275Z,1008.64
2022-10-05T08:31:23.092Z,1008.66
2022-10-05T08:32:03.669Z,1008.69
2022-10-05T08:32:44.095Z,1008.65
2022-10-05T08:33:24.687Z,1008.66
2022-10-05T08:34:05.146Z,1008.65
2022-10-05T08:34:45.682Z,1008.69
2022-10-05T08:35:26.184Z,1008.62
2022-10-05T08:36:07.439Z,1008.7
2022-10-05T08:36:51.593Z,1008.67
2022-10-05T08:37:28.638Z,1008.69
2022-10-05T08:39:42.028Z,1008.62
2022-10-05T08:40:22.612Z,1008.64
2022-10-05T08:41:03.149Z,1008.65
2022-10-05T08:41:43.903Z,1008.67
2022-10-05T08:42:24.251Z,1008.61
2022-10-05T08:43:45.266Z,1008.64
2022-10-05T08:44:25.805Z,1008.64
2022-10-05T08:45:06.380Z,1008.63
2022-10-05T08:45:47.627Z,1008.62
2022-10-05T08:46:27.479Z,1008.63
2022-10-05T08:50:01.658Z,1008.66
2022-10-05T08:50:42.326Z,1008.63
2022-10-05T08:51:22.857Z,1008.57
2022-10-05T08:52:03.490Z,1008.61
2022-10-05T08:52:44.209Z,1008.64
2022-10-05T08:53:24.756Z,1008.65
2022-10-05T08:54:07.070Z,1008.63
2022-10-05T08:54:46.997Z,1008.63
2022-10-05T08:55:27.807Z,1008.63
2022-10-05T08:56:08.011Z,1008.63
2022-10-05T08:56:48.485Z,1008.63
2022-10-05T08:57:29.176Z,1008.68
2022-10-05T08:58:50.196Z,1008.67
2022-10-05T08:59:30.930Z,1008.62
2022-10-05T09:00:12.372Z,1008.65
2022-10-05T09:00:52.850Z,1008.65
2022-10-05T09:01:33.450Z,1008.61
2022-10-05T09:04:47.282Z,1008.58
2022-10-05T09:05:27.851Z,1008.64
2022-10-05T09:06:09.379Z,1008.61
2022-10-05T09:06:49.976Z,1008.58
2022-10-05T09:07:30.935Z,1008.62
2022-10-05T09:08:11.488Z,1008.57
2022-10-05T09:08:52.058Z,1008.6
2022-10-05T09:09:32.497Z,1008.61
2022-10-05T09:10:13.135Z,1008.56
2022-10-05T09:10:53.578Z,1008.55
2022-10-05T09:11:34.206Z,1008.56
2022-10-05T09:12:14.814Z,1008.56
2022-10-05T09:12:55.305Z,1008.54
2022-10-05T09:14:16.395Z,1008.54
2022-10-05T09:15:20.781Z,1008.57
2022-10-05T09:15:37.513Z,1008.53
2022-10-05T09:16:18.099Z,1008.51
2022-10-05T09:16:58.516Z,1008.55
2022-10-05T09:17:39.487Z,1008.56
2022-10-05T09:18:19.558Z,1008.52
2022-10-05T09:19:00.658Z,1008.54
2022-10-05T09:19:40.678Z,1008.57
2022-10-05T09:20:21.274Z,1008.58
2022-10-05T09:21:02.385Z,1008.52
2022-10-05T09:21:42.880Z,1008.5
2022-10-05T09:22:23.428Z,1008.46
2022-10-05T09:23:04.044Z,1008.45
2022-10-05T09:23:44.583Z,1008.48
2022-10-05T09:24:25.110Z,1008.5
2022-10-05T09:25:05.638Z,1008.46
2022-10-05T09:25:46.223Z,1008.41
2022-10-05T09:26:26.744Z,1008.47
2022-10-05T09:27:07.240Z,1008.46
2022-10-05T09:27:48.701Z,1008.47
2022-10-05T09:28:29.478Z,1008.46
2022-10-05T09:29:09.954Z,1008.49
2022-10-05T09:29:50.470Z,1008.5
2022-10-05T09:30:30.981Z,1008.51
2022-10-05T09:31:11.512Z,1008.47
2022-10-05T09:31:51.996Z,1008.51
2022-10-05T09:32:32.595Z,1008.53
2022-10-05T09:33:13.079Z,1008.5
2022-10-05T09:33:53.677Z,1008.5
2022-10-05T09:34:34.209Z,1008.47
2022-10-05T09:35:14.781Z,1008.45
2022-10-05T09:35:55.264Z,1008.44
2022-10-05T09:36:35.792Z,1008.43
2022-10-05T09:37:16.394Z,1008.42
2022-10-05T09:37:56.989Z,1008.42
2022-10-05T09:38:37.511Z,1008.49
2022-10-05T09:39:18.073Z,1008.44
2022-10-05T09:40:01.307Z,1008.4
2022-10-05T09:40:39.118Z,1008.43
2022-10-05T09:41:19.790Z,1008.43
2022-10-05T09:42:00.358Z,1008.38
2022-10-05T09:42:40.808Z,1008.45
2022-10-05T09:43:21.420Z,1008.41
2022-10-05T09:44:42.415Z,1008.39
2022-10-05T09:45:24.450Z,1008.38
2022-10-05T09:46:05.072Z,1008.33
2022-10-05T09:46:45.682Z,1008.42
2022-10-05T09:47:26.209Z,1008.32
2022-10-05T09:48:06.709Z,1008.27
2022-10-05T09:48:47.283Z,1008.29
2022-10-05T09:49:27.800Z,1008.32
2022-10-05T09:50:49.009Z,1008.34
2022-10-05T09:51:29.492Z,1008.25
2022-10-05T09:52:09.946Z,1008.28
2022-10-05T09:52:50.476Z,1008.25
2022-10-05T09:54:12.715Z,1008.23
2022-10-05T09:54:53.079Z,1008.27
2022-10-05T09:55:33.741Z,1008.2